createdAt,value
2019-05-11T00:00:55.796Z,62.00
2019-05-11T00:01:55.779Z,59.90
2019-05-11T00:02:55.820Z,60.70
2019-05-11T00:03:55.762Z,59.30
2019-05-11T00:04:55.752Z,59.80
2019-05-11T00:05:55.741Z,60.00
2019-05-11T00:06:55.737Z,59.70
2019-05-11T00:07:55.768Z,57.30
2019-05-11T00:08:55.707Z,58.70
2019-05-11T00:09:58.445Z,56.20
2019-05-11T00:10:55.696Z,57.30
2019-05-11T00:11:55.692Z,54.40
2019-05-11T00:12:55.697Z,54.00
2019-05-11T00:13:55.664Z,54.40
2019-05-11T00:14:55.638Z,56.00
2019-05-11T00:15:55.642Z,54.30
2019-05-11T00:16:55.621Z,55.10
2019-05-11T00:17:55.642Z,53.50
2019-05-11T00:18:55.599Z,55.00
2019-05-11T00:19:55.589Z,52.50
2019-05-11T00:20:55.590Z,51.40
2019-05-11T00:21:55.570Z,49.90
2019-05-11T00:22:55.581Z,51.30
2019-05-11T00:23:55.543Z,51.50
2019-05-11T00:24:55.546Z,51.50
2019-05-11T00:25:55.530Z,52.60
2019-05-11T00:26:55.524Z,51.20
2019-05-11T00:27:55.546Z,52.60
2019-05-11T00:28:55.503Z,51.90
2019-05-11T00:29:55.489Z,51.20
2019-05-11T00:30:55.515Z,51.50
2019-05-11T00:31:55.464Z,50.40
2019-05-11T00:32:55.470Z,49.50
2019-05-11T00:33:55.454Z,50.20
2019-05-11T00:34:55.435Z,49.50
2019-05-11T00:35:55.421Z,49.60
2019-05-11T00:36:55.409Z,50.50
2019-05-11T00:37:55.404Z,48.90
2019-05-11T00:38:55.443Z,49.30
2019-05-11T00:39:55.377Z,49.10
2019-05-11T00:40:55.384Z,50.00
2019-05-11T00:41:55.355Z,50.20
2019-05-11T00:42:55.356Z,48.90
2019-05-11T00:43:55.362Z,48.60
2019-05-11T00:44:55.318Z,47.90
2019-05-11T00:45:55.304Z,49.80
2019-05-11T00:46:55.300Z,50.80
2019-05-11T00:47:55.288Z,47.50
2019-05-11T00:48:55.310Z,50.40
2019-05-11T00:49:55.269Z,50.60
2019-05-11T00:50:55.263Z,51.00
2019-05-11T00:51:55.321Z,50.10
2019-05-11T00:52:55.230Z,49.50
2019-05-11T00:53:55.239Z,49.40
2019-05-11T00:54:55.209Z,48.10
2019-05-11T00:55:55.211Z,49.70
2019-05-11T00:56:55.184Z,50.80
2019-05-11T00:57:55.182Z,49.30
2019-05-11T00:58:55.205Z,52.80
2019-05-11T00:59:55.155Z,50.30
2019-05-11T01:00:55.153Z,50.50
2019-05-11T01:01:55.145Z,49.90
2019-05-11T01:04:04.319Z,46.80
2019-05-11T01:05:05.323Z,49.60
2019-05-11T01:06:05.306Z,50.80
2019-05-11T01:07:05.273Z,50.60
2019-05-11T01:08:05.265Z,49.60
2019-05-11T01:09:05.269Z,50.20
2019-05-11T01:10:05.240Z,51.60
2019-05-11T01:11:05.240Z,50.00
2019-05-11T01:12:05.220Z,51.30
2019-05-11T01:13:05.224Z,50.10
2019-05-11T01:14:05.235Z,48.90
2019-05-11T01:15:05.197Z,50.00
2019-05-11T01:16:05.182Z,48.30
2019-05-11T01:17:05.168Z,48.40
2019-05-11T01:18:05.162Z,48.60
2019-05-11T01:19:05.163Z,48.90
2019-05-11T01:20:05.135Z,48.40
2019-05-11T01:21:05.124Z,47.30
2019-05-11T01:22:05.124Z,48.50
2019-05-11T01:23:05.104Z,47.20
2019-05-11T01:24:05.105Z,48.10
2019-05-11T01:25:05.074Z,47.80
2019-05-11T01:26:05.063Z,48.50
2019-05-11T01:27:05.058Z,47.60
2019-05-11T01:28:05.050Z,47.40
2019-05-11T01:29:05.056Z,46.60
2019-05-11T01:30:05.047Z,47.30
2019-05-11T01:31:05.010Z,47.00
2019-05-11T01:32:05.014Z,48.20
2019-05-11T01:33:05.046Z,45.60
2019-05-11T01:34:05.002Z,46.40
2019-05-11T01:35:04.971Z,45.80
2019-05-11T01:36:04.971Z,45.40
2019-05-11T01:37:04.946Z,46.40
2019-05-11T01:38:04.937Z,44.40
2019-05-11T01:39:04.948Z,45.20
2019-05-11T01:40:04.931Z,44.70
2019-05-11T01:41:04.936Z,45.60
2019-05-11T01:42:05.583Z,44.80
2019-05-11T01:43:05.561Z,44.40
2019-05-11T01:44:04.888Z,42.00
2019-05-11T01:45:05.095Z,44.10
2019-05-11T01:46:04.874Z,43.40
2019-05-11T01:47:04.868Z,45.00
2019-05-11T01:48:05.571Z,43.50
2019-05-11T01:49:05.565Z,44.30
2019-05-11T01:50:05.083Z,43.60
2019-05-11T01:51:04.873Z,43.10
2019-05-11T01:52:04.873Z,43.20
2019-05-11T01:53:04.958Z,44.10
2019-05-11T01:54:04.861Z,44.60
2019-05-11T01:55:04.836Z,44.00
2019-05-11T01:56:04.750Z,45.00
2019-05-11T01:57:04.727Z,42.60
2019-05-11T01:58:04.715Z,42.00
2019-05-11T01:59:04.716Z,42.30
2019-05-11T02:00:04.732Z,43.20
2019-05-11T02:01:04.693Z,42.10
2019-05-11T02:02:04.674Z,41.30
2019-05-11T02:03:04.662Z,42.20
2019-05-11T02:04:04.659Z,41.10
2019-05-11T02:05:04.674Z,42.20
2019-05-11T02:06:04.624Z,40.30
2019-05-11T02:07:04.614Z,41.80
2019-05-11T02:08:04.613Z,41.90
2019-05-11T02:09:04.599Z,42.30
2019-05-11T02:10:04.608Z,41.30
2019-05-11T02:11:15.374Z,42.50
2019-05-11T02:12:04.572Z,41.00
2019-05-11T02:13:04.560Z,42.60
2019-05-11T02:14:04.548Z,40.00
2019-05-11T02:15:04.553Z,43.80
2019-05-11T02:16:04.512Z,43.80
2019-05-11T02:17:04.512Z,41.90
2019-05-11T02:18:04.509Z,45.10
2019-05-11T02:19:04.484Z,45.40
2019-05-11T02:20:04.493Z,47.10
2019-05-11T02:21:04.477Z,46.50
2019-05-11T02:22:04.448Z,46.30
2019-05-11T02:23:04.447Z,47.20
2019-05-11T02:24:04.427Z,50.50
2019-05-11T02:25:04.457Z,48.80
2019-05-11T02:26:04.427Z,48.40
2019-05-11T02:27:04.406Z,48.00
2019-05-11T02:28:04.392Z,48.20
2019-05-11T02:29:04.377Z,46.90
2019-05-11T02:30:04.635Z,45.70
2019-05-11T02:31:04.363Z,44.80
2019-05-11T02:32:04.348Z,43.70
2019-05-11T02:33:04.337Z,46.80
2019-05-11T02:34:04.320Z,46.60
2019-05-11T02:35:04.327Z,43.40
2019-05-11T02:36:04.294Z,46.20
2019-05-11T02:37:04.304Z,45.00
2019-05-11T02:38:04.282Z,46.80
2019-05-11T02:39:04.278Z,44.80
2019-05-11T02:40:04.279Z,45.20
2019-05-11T02:41:04.252Z,43.60
2019-05-11T02:42:04.243Z,43.10
2019-05-11T02:43:04.220Z,44.30
2019-05-11T02:44:04.213Z,45.50
2019-05-11T02:45:04.206Z,45.10
2019-05-11T02:46:04.213Z,46.80
2019-05-11T02:47:04.171Z,49.00
2019-05-11T02:48:04.167Z,48.30
2019-05-11T02:49:04.158Z,51.40
2019-05-11T02:50:04.173Z,48.80
2019-05-11T02:51:04.146Z,50.10
2019-05-11T02:52:04.124Z,50.00
2019-05-11T02:53:04.122Z,49.30
2019-05-11T02:54:04.133Z,50.10
2019-05-11T02:55:04.094Z,48.30
2019-05-11T02:56:04.108Z,49.70
2019-05-11T02:57:04.066Z,48.70
2019-05-11T02:58:04.060Z,50.20
2019-05-11T02:59:04.043Z,48.60
2019-05-11T03:00:04.039Z,50.10
2019-05-11T03:01:04.039Z,50.70
2019-05-11T03:02:04.013Z,50.80
2019-05-11T03:03:04.021Z,51.20
2019-05-11T03:05:13.174Z,50.50
2019-05-11T03:06:14.176Z,50.40
2019-05-11T03:07:14.160Z,50.80
2019-05-11T03:08:14.137Z,50.10
2019-05-11T03:09:14.124Z,51.20
2019-05-11T03:10:14.112Z,50.80
2019-05-11T03:11:14.125Z,50.60
2019-05-11T03:12:14.107Z,50.50
2019-05-11T03:13:14.091Z,49.10
2019-05-11T03:14:14.079Z,50.40
2019-05-11T03:15:14.096Z,50.10
2019-05-11T03:16:14.064Z,49.80
2019-05-11T03:17:14.054Z,50.40
2019-05-11T03:18:14.042Z,50.10
2019-05-11T03:19:14.023Z,48.60
2019-05-11T03:20:14.007Z,46.50
2019-05-11T03:21:14.018Z,47.50
2019-05-11T03:22:14.081Z,45.30
2019-05-11T03:23:13.983Z,44.00
2019-05-11T03:24:13.967Z,43.50
2019-05-11T03:25:13.961Z,43.80
2019-05-11T03:26:13.966Z,43.00
2019-05-11T03:27:13.947Z,44.00
2019-05-11T03:28:13.944Z,42.90
2019-05-11T03:29:13.920Z,41.40
2019-05-11T03:30:13.909Z,42.50
2019-05-11T03:31:13.905Z,42.00
2019-05-11T03:32:13.884Z,43.10
2019-05-11T03:33:13.889Z,43.70
2019-05-11T03:34:13.859Z,45.50
2019-05-11T03:35:13.867Z,44.80
2019-05-11T03:36:13.858Z,46.50
2019-05-11T03:37:13.818Z,46.00
2019-05-11T03:38:13.828Z,48.40
2019-05-11T03:39:13.802Z,47.10
2019-05-11T03:40:13.791Z,48.40
2019-05-11T03:41:13.801Z,47.10
2019-05-11T03:42:15.335Z,48.90
2019-05-11T03:43:13.779Z,48.20
2019-05-11T03:44:13.825Z,48.30
2019-05-11T03:45:13.743Z,50.00
2019-05-11T03:46:13.743Z,50.20
2019-05-11T03:47:13.716Z,50.70
2019-05-11T03:48:13.707Z,50.90
2019-05-11T03:49:13.695Z,48.20
2019-05-11T03:50:13.667Z,50.30
2019-05-11T03:51:13.698Z,49.30
2019-05-11T03:52:13.661Z,49.00
2019-05-11T03:53:13.648Z,50.70
2019-05-11T03:54:13.640Z,50.30
2019-05-11T03:55:13.645Z,49.00
2019-05-11T03:56:13.625Z,48.50
2019-05-11T03:57:13.619Z,49.20
2019-05-11T03:58:13.608Z,45.90
2019-05-11T03:59:13.583Z,49.70
2019-05-11T04:00:13.582Z,47.70
2019-05-11T04:01:13.562Z,47.70
2019-05-11T04:02:13.688Z,47.60
2019-05-11T04:03:13.548Z,48.00
2019-05-11T04:04:16.442Z,48.60
2019-05-11T04:05:13.526Z,48.00
2019-05-11T04:06:13.505Z,47.40
2019-05-11T04:07:13.510Z,47.60
2019-05-11T04:08:13.486Z,48.10
2019-05-11T04:09:13.476Z,49.10
2019-05-11T04:10:13.489Z,48.00
2019-05-11T04:11:13.448Z,46.80
2019-05-11T04:12:32.965Z,48.30
2019-05-11T04:13:13.427Z,46.70
2019-05-11T04:14:13.420Z,45.90
2019-05-11T04:15:13.397Z,46.00
2019-05-11T04:16:13.393Z,46.70
2019-05-11T04:17:13.396Z,44.90
2019-05-11T04:18:13.374Z,45.20
2019-05-11T04:19:13.353Z,46.10
2019-05-11T04:20:13.348Z,45.90
2019-05-11T04:21:13.346Z,45.60
2019-05-11T04:22:13.339Z,44.90
2019-05-11T04:23:13.306Z,44.30
2019-05-11T04:24:13.308Z,44.30
2019-05-11T04:25:13.291Z,43.60
2019-05-11T04:26:13.281Z,43.60
2019-05-11T04:27:13.285Z,43.20
2019-05-11T04:28:13.268Z,43.90
2019-05-11T04:29:13.254Z,42.50
2019-05-11T04:30:13.238Z,43.40
2019-05-11T04:31:13.230Z,41.80
2019-05-11T04:32:13.235Z,43.20
2019-05-11T04:33:13.203Z,43.20
2019-05-11T04:34:13.195Z,42.50
2019-05-11T04:35:13.188Z,42.10
2019-05-11T04:36:13.183Z,43.70
2019-05-11T04:37:13.188Z,42.30
2019-05-11T04:38:13.141Z,42.60
2019-05-11T04:39:13.136Z,41.20
2019-05-11T04:40:13.144Z,43.10
2019-05-11T04:41:13.119Z,42.80
2019-05-11T04:42:13.124Z,42.80
2019-05-11T04:43:13.137Z,40.70
2019-05-11T04:44:13.109Z,40.00
2019-05-11T04:45:13.070Z,40.00
2019-05-11T04:46:13.051Z,41.20
2019-05-11T04:47:13.073Z,42.10
2019-05-11T04:48:13.033Z,41.70
2019-05-11T04:49:13.027Z,40.80
2019-05-11T04:50:13.012Z,40.30
2019-05-11T04:51:13.013Z,38.90
2019-05-11T04:52:13.019Z,40.70
2019-05-11T04:53:12.979Z,39.80
2019-05-11T04:54:12.991Z,40.30
2019-05-11T04:55:12.957Z,38.30
2019-05-11T04:56:12.960Z,39.00
2019-05-11T04:57:12.990Z,39.20
2019-05-11T04:58:12.953Z,38.20
2019-05-11T04:59:12.909Z,38.60
2019-05-11T05:00:12.895Z,39.50
2019-05-11T05:01:12.900Z,38.10
2019-05-11T05:02:12.888Z,40.40
2019-05-11T05:03:12.891Z,37.90
2019-05-11T05:04:14.437Z,37.20
2019-05-11T05:06:24.345Z,34.70
2019-05-11T05:07:23.057Z,36.20
2019-05-11T05:08:26.512Z,35.40
2019-05-11T05:09:23.030Z,36.30
2019-05-11T05:10:22.999Z,34.90
2019-05-11T05:11:22.981Z,35.20
2019-05-11T05:12:22.979Z,34.50
2019-05-11T05:13:28.646Z,35.60
2019-05-11T05:14:22.969Z,33.90
2019-05-11T05:15:22.939Z,32.70
2019-05-11T05:16:22.941Z,33.40
2019-05-11T05:17:22.923Z,32.80
2019-05-11T05:18:22.926Z,33.10
2019-05-11T05:19:22.906Z,32.00
2019-05-11T05:20:22.899Z,31.80
2019-05-11T05:21:22.884Z,30.20
2019-05-11T05:22:22.879Z,30.30
2019-05-11T05:23:22.884Z,30.80
2019-05-11T05:24:22.850Z,31.60
2019-05-11T05:25:22.852Z,29.80
2019-05-11T05:26:22.833Z,30.70
2019-05-11T05:27:22.807Z,30.40
2019-05-11T05:28:22.833Z,30.40
2019-05-11T05:29:22.800Z,30.00
2019-05-11T05:30:22.776Z,30.80
2019-05-11T05:31:22.770Z,30.10
2019-05-11T05:32:22.756Z,29.60
2019-05-11T05:33:22.843Z,29.60
2019-05-11T05:34:22.730Z,30.10
2019-05-11T05:35:22.769Z,30.30
2019-05-11T05:36:22.712Z,29.20
2019-05-11T05:37:22.695Z,28.90
2019-05-11T05:38:22.702Z,28.90
2019-05-11T05:39:22.673Z,28.60
2019-05-11T05:40:22.672Z,28.50
2019-05-11T05:41:23.283Z,27.50
2019-05-11T05:42:22.649Z,27.50
2019-05-11T05:43:27.446Z,27.60
2019-05-11T05:44:22.622Z,27.20
2019-05-11T05:45:22.611Z,27.60
2019-05-11T05:46:22.606Z,26.60
2019-05-11T05:47:22.605Z,26.60
2019-05-11T05:48:22.597Z,26.70
2019-05-11T05:49:22.572Z,26.10
2019-05-11T05:50:22.557Z,26.30
2019-05-11T05:51:22.534Z,26.50
2019-05-11T05:52:22.536Z,26.00
2019-05-11T05:53:22.544Z,25.90
2019-05-11T05:54:22.510Z,26.70
2019-05-11T05:55:22.508Z,27.00
2019-05-11T05:56:22.483Z,24.90
2019-05-11T05:57:22.484Z,26.30
2019-05-11T05:58:22.511Z,26.20
2019-05-11T05:59:22.461Z,27.60
2019-05-11T06:00:22.460Z,25.40
2019-05-11T06:01:22.439Z,25.60
2019-05-11T06:02:22.437Z,25.60
2019-05-11T06:03:22.424Z,25.10
2019-05-11T06:04:22.400Z,25.00
2019-05-11T06:05:22.380Z,24.60
2019-05-11T06:06:22.383Z,24.20
2019-05-11T06:07:22.368Z,26.60
2019-05-11T06:08:22.377Z,24.70
2019-05-11T06:09:22.339Z,24.30
2019-05-11T06:10:22.331Z,25.80
2019-05-11T06:11:22.311Z,24.80
2019-05-11T06:12:22.323Z,24.90
2019-05-11T06:13:22.340Z,24.80
2019-05-11T06:14:22.288Z,24.90
2019-05-11T06:15:22.280Z,24.90
2019-05-11T06:16:22.258Z,24.60
2019-05-11T06:17:22.263Z,25.00
2019-05-11T06:18:22.270Z,24.30
2019-05-11T06:19:22.256Z,25.10
2019-05-11T06:20:22.225Z,25.30
2019-05-11T06:21:22.214Z,24.80
2019-05-11T06:22:22.221Z,25.10
2019-05-11T06:23:22.224Z,25.30
2019-05-11T06:24:22.166Z,25.20
2019-05-11T06:25:22.179Z,24.90
2019-05-11T06:26:22.156Z,25.70
2019-05-11T06:27:22.138Z,24.80
2019-05-11T06:28:22.145Z,25.30
2019-05-11T06:29:22.218Z,25.60
2019-05-11T06:30:22.118Z,26.20
2019-05-11T06:31:22.102Z,25.70
2019-05-11T06:32:22.090Z,24.80
2019-05-11T06:33:22.078Z,24.80
2019-05-11T06:34:22.084Z,25.20
2019-05-11T06:35:22.732Z,25.30
2019-05-11T06:36:22.043Z,25.30
2019-05-11T06:37:22.027Z,24.60
2019-05-11T06:38:22.030Z,24.70
2019-05-11T06:39:22.019Z,24.80
2019-05-11T06:40:21.998Z,24.60
2019-05-11T06:41:21.996Z,25.10
2019-05-11T06:42:21.974Z,24.50
2019-05-11T06:43:21.965Z,23.40
2019-05-11T06:44:21.968Z,23.60
2019-05-11T06:45:21.941Z,24.40
2019-05-11T06:46:21.944Z,24.60
2019-05-11T06:47:21.927Z,24.10
2019-05-11T06:48:21.904Z,25.30
2019-05-11T06:49:21.917Z,23.80
2019-05-11T06:50:21.889Z,24.30
2019-05-11T06:51:21.868Z,24.80
2019-05-11T06:52:21.878Z,23.50
2019-05-11T06:53:21.859Z,23.50
2019-05-11T06:54:21.860Z,25.20
2019-05-11T06:55:21.832Z,23.70
2019-05-11T06:56:21.843Z,24.00
2019-05-11T06:57:21.819Z,25.10
2019-05-11T06:58:21.800Z,23.00
2019-05-11T06:59:21.806Z,22.60
2019-05-11T07:00:21.782Z,23.80
2019-05-11T07:01:21.765Z,23.90
2019-05-11T07:02:21.758Z,23.30
2019-05-11T07:03:21.743Z,24.40
2019-05-11T07:04:21.747Z,24.50
2019-05-11T07:05:21.724Z,23.80
2019-05-11T07:07:46.088Z,21.50
2019-05-11T07:08:31.881Z,22.70
2019-05-11T07:09:31.904Z,23.30
2019-05-11T07:10:31.863Z,23.00
2019-05-11T07:11:31.851Z,22.60
2019-05-11T07:12:31.833Z,22.50
2019-05-11T07:13:31.839Z,23.40
2019-05-11T07:14:31.841Z,23.10
2019-05-11T07:15:31.815Z,22.30
2019-05-11T07:16:31.793Z,23.30
2019-05-11T07:17:31.782Z,23.10
2019-05-11T07:18:31.780Z,22.60
2019-05-11T07:19:31.790Z,23.20
2019-05-11T07:20:31.758Z,22.90
2019-05-11T07:21:31.737Z,23.20
2019-05-11T07:22:31.721Z,22.30
2019-05-11T07:23:31.718Z,22.80
2019-05-11T07:24:31.732Z,23.30
2019-05-11T07:25:31.708Z,23.30
2019-05-11T07:26:31.686Z,22.40
2019-05-11T07:27:31.686Z,23.20
2019-05-11T07:28:31.681Z,23.50
2019-05-11T07:29:31.673Z,21.50
2019-05-11T07:30:31.642Z,22.60
2019-05-11T07:31:31.631Z,22.50
2019-05-11T07:32:31.632Z,21.80
2019-05-11T07:33:31.618Z,21.80
2019-05-11T07:34:31.627Z,22.50
2019-05-11T07:35:31.596Z,22.20
2019-05-11T07:36:31.575Z,22.60
2019-05-11T07:37:31.564Z,22.20
2019-05-11T07:38:31.550Z,22.40
2019-05-11T07:39:31.553Z,22.50
2019-05-11T07:40:31.573Z,21.50
2019-05-11T07:41:31.539Z,22.70
2019-05-11T07:42:31.545Z,22.30
2019-05-11T07:43:31.570Z,22.60
2019-05-11T07:44:38.389Z,21.90
2019-05-11T07:45:31.484Z,22.20
2019-05-11T07:46:31.469Z,21.60
2019-05-11T07:47:31.476Z,22.20
2019-05-11T07:48:31.451Z,22.50
2019-05-11T07:49:31.431Z,21.80
2019-05-11T07:50:31.430Z,22.30
2019-05-11T07:51:31.415Z,23.20
2019-05-11T07:52:31.403Z,25.40
2019-05-11T07:53:31.383Z,22.50
2019-05-11T07:54:31.372Z,22.00
2019-05-11T07:55:31.386Z,22.00
2019-05-11T07:56:31.359Z,22.90
2019-05-11T07:57:31.353Z,22.10
2019-05-11T07:58:31.337Z,22.90
2019-05-11T07:59:31.313Z,22.30
2019-05-11T08:00:31.328Z,21.80
2019-05-11T08:01:31.299Z,22.50
2019-05-11T08:02:32.383Z,23.00
2019-05-11T08:03:31.272Z,23.00
2019-05-11T08:04:31.263Z,23.00
2019-05-11T08:05:31.265Z,22.20
2019-05-11T08:06:31.233Z,21.70
2019-05-11T08:07:31.241Z,22.40
2019-05-11T08:08:31.225Z,22.80
2019-05-11T08:09:31.199Z,22.70
2019-05-11T08:10:31.212Z,23.30
2019-05-11T08:11:31.614Z,21.90
2019-05-11T08:12:31.174Z,22.30
2019-05-11T08:13:31.172Z,22.90
2019-05-11T08:14:31.164Z,22.60
2019-05-11T08:15:31.158Z,23.50
2019-05-11T08:16:31.154Z,23.40
2019-05-11T08:17:31.114Z,22.70
2019-05-11T08:18:31.108Z,22.90
2019-05-11T08:19:31.096Z,22.80
2019-05-11T08:20:31.105Z,24.10
2019-05-11T08:21:31.072Z,22.90
2019-05-11T08:22:31.066Z,23.20
2019-05-11T08:23:31.050Z,22.30
2019-05-11T08:24:31.034Z,22.60
2019-05-11T08:25:31.048Z,22.50
2019-05-11T08:26:31.022Z,22.20
2019-05-11T08:27:30.998Z,22.60
2019-05-11T08:28:30.995Z,22.70
2019-05-11T08:29:30.980Z,23.30
2019-05-11T08:30:30.992Z,22.70
2019-05-11T08:31:30.983Z,22.70
2019-05-11T08:32:30.949Z,22.80
2019-05-11T08:33:30.938Z,23.10
2019-05-11T08:34:30.932Z,23.60
2019-05-11T08:35:31.397Z,23.40
2019-05-11T08:36:30.931Z,22.50
2019-05-11T08:37:30.887Z,22.80
2019-05-11T08:38:30.887Z,23.70
2019-05-11T08:39:30.864Z,22.40
2019-05-11T08:40:30.851Z,23.10
2019-05-11T08:41:30.855Z,22.00
2019-05-11T08:42:30.836Z,21.90
2019-05-11T08:43:30.822Z,21.70
2019-05-11T08:44:30.818Z,22.50
2019-05-11T08:45:30.810Z,21.30
2019-05-11T08:46:30.816Z,22.00
2019-05-11T08:47:30.775Z,21.90
2019-05-11T08:48:30.763Z,22.20
2019-05-11T08:49:30.760Z,21.80
2019-05-11T08:50:30.752Z,21.30
2019-05-11T08:51:30.748Z,21.50
2019-05-11T08:52:30.716Z,21.70
2019-05-11T08:53:30.710Z,20.80
2019-05-11T08:54:30.699Z,21.80
2019-05-11T08:55:30.707Z,20.60
2019-05-11T08:56:30.709Z,21.90
2019-05-11T08:57:31.662Z,20.70
2019-05-11T08:58:30.667Z,20.70
2019-05-11T08:59:30.655Z,21.10
2019-05-11T09:00:30.636Z,20.50
2019-05-11T09:01:31.294Z,20.20
2019-05-11T09:02:30.633Z,20.10
2019-05-11T09:03:30.599Z,20.40
2019-05-11T09:04:30.600Z,19.80
2019-05-11T09:05:30.571Z,19.40
2019-05-11T09:06:30.588Z,19.30
2019-05-11T09:08:39.762Z,16.80
2019-05-11T09:09:40.735Z,17.20
2019-05-11T09:10:40.726Z,20.10
2019-05-11T09:11:40.724Z,19.70
2019-05-11T09:12:40.704Z,18.20
2019-05-11T09:13:40.694Z,19.60
2019-05-11T09:14:40.680Z,18.90
2019-05-11T09:15:40.962Z,18.90
2019-05-11T09:16:40.664Z,18.70
2019-05-11T09:17:40.659Z,18.50
2019-05-11T09:18:40.633Z,18.70
2019-05-11T09:19:40.625Z,18.40
2019-05-11T09:20:40.612Z,17.30
2019-05-11T09:21:40.597Z,17.70
2019-05-11T09:22:40.599Z,17.10
2019-05-11T09:23:40.946Z,17.90
2019-05-11T09:24:40.570Z,17.70
2019-05-11T09:25:40.558Z,17.20
2019-05-11T09:26:40.546Z,17.50
2019-05-11T09:27:43.375Z,16.40
2019-05-11T09:28:40.541Z,16.80
2019-05-11T09:29:40.502Z,17.10
2019-05-11T09:30:40.494Z,17.20
2019-05-11T09:31:40.481Z,15.80
2019-05-11T09:32:40.491Z,15.90
2019-05-11T09:33:40.467Z,15.50
2019-05-11T09:34:40.444Z,15.60
2019-05-11T09:35:50.100Z,15.20
2019-05-11T09:36:40.437Z,17.00
2019-05-11T09:37:40.433Z,14.50
2019-05-11T09:38:40.408Z,14.40
2019-05-11T09:39:40.402Z,15.00
2019-05-11T09:40:40.377Z,14.30
2019-05-11T09:41:40.369Z,15.90
2019-05-11T09:42:40.383Z,14.70
2019-05-11T09:43:40.349Z,14.10
2019-05-11T09:44:40.336Z,14.70
2019-05-11T09:45:48.237Z,15.80
2019-05-11T09:46:40.332Z,15.00
2019-05-11T09:47:40.332Z,15.70
2019-05-11T09:48:40.289Z,15.30
2019-05-11T09:49:47.593Z,15.80
2019-05-11T09:50:40.267Z,15.40
2019-05-11T09:51:40.256Z,15.80
2019-05-11T09:52:40.267Z,15.60
2019-05-11T09:53:40.256Z,15.20
2019-05-11T09:54:40.232Z,15.10
2019-05-11T09:55:40.218Z,15.70
2019-05-11T09:56:40.209Z,16.40
2019-05-11T09:57:40.197Z,16.10
2019-05-11T09:58:40.208Z,16.90
2019-05-11T09:59:40.164Z,15.50
2019-05-11T10:00:40.157Z,15.00
2019-05-11T10:01:40.154Z,15.60
2019-05-11T10:02:40.137Z,15.60
2019-05-11T10:03:40.140Z,14.30
2019-05-11T10:04:40.111Z,16.90
2019-05-11T10:05:40.097Z,13.80
2019-05-11T10:06:40.102Z,16.90
2019-05-11T10:07:40.102Z,13.10
2019-05-11T10:08:40.089Z,15.20
2019-05-11T10:09:40.058Z,14.30
2019-05-11T10:10:40.052Z,13.30
2019-05-11T10:11:40.106Z,15.00
2019-05-11T10:12:40.047Z,13.80
2019-05-11T10:13:40.038Z,14.60
2019-05-11T10:14:40.009Z,11.90
2019-05-11T10:15:39.989Z,14.50
2019-05-11T10:16:39.997Z,13.40
2019-05-11T10:17:39.986Z,12.60
2019-05-11T10:18:39.971Z,13.90
2019-05-11T10:19:39.950Z,11.70
2019-05-11T10:20:39.930Z,13.60
2019-05-11T10:21:39.915Z,12.70
2019-05-11T10:22:39.910Z,11.30
2019-05-11T10:23:42.625Z,13.40
2019-05-11T10:24:39.913Z,12.90
2019-05-11T10:25:39.874Z,12.80
2019-05-11T10:26:39.877Z,13.40
2019-05-11T10:27:39.859Z,12.80
2019-05-11T10:28:39.871Z,12.20
2019-05-11T10:29:39.851Z,13.60
2019-05-11T10:30:39.829Z,12.90
2019-05-11T10:31:39.811Z,12.70
2019-05-11T10:32:39.799Z,11.80
2019-05-11T10:33:39.806Z,12.90
2019-05-11T10:34:39.785Z,12.90
2019-05-11T10:35:39.773Z,11.70
2019-05-11T10:36:39.749Z,13.80
2019-05-11T10:37:39.762Z,11.90
2019-05-11T10:38:39.757Z,16.30
2019-05-11T10:39:39.727Z,12.90
2019-05-11T10:40:39.708Z,12.10
2019-05-11T10:41:39.701Z,13.20
2019-05-11T10:42:39.693Z,12.50
2019-05-11T10:43:39.700Z,13.10
2019-05-11T10:44:39.732Z,14.20
2019-05-11T10:45:39.653Z,13.30
2019-05-11T10:46:39.652Z,14.80
2019-05-11T10:47:39.653Z,16.10
2019-05-11T10:48:39.629Z,13.40
2019-05-11T10:49:39.631Z,16.90
2019-05-11T10:50:39.603Z,13.60
2019-05-11T10:51:39.590Z,12.90
2019-05-11T10:52:39.583Z,13.80
2019-05-11T10:53:39.561Z,12.00
2019-05-11T10:54:40.127Z,14.20
2019-05-11T10:55:39.544Z,11.50
2019-05-11T10:56:39.545Z,11.50
2019-05-11T10:57:39.535Z,10.80
2019-05-11T10:58:39.520Z,12.90
2019-05-11T10:59:39.523Z,11.90
2019-05-11T11:00:39.481Z,10.00
2019-05-11T11:01:39.481Z,9.60
2019-05-11T11:02:39.477Z,8.70
2019-05-11T11:03:39.454Z,8.60
2019-05-11T11:04:39.459Z,9.20
2019-05-11T11:05:39.446Z,8.40
2019-05-11T11:06:39.412Z,8.20
2019-05-11T11:07:39.402Z,7.10
2019-05-11T11:09:49.173Z,8.40
2019-05-11T11:10:49.578Z,6.70
2019-05-11T11:11:49.558Z,6.90
2019-05-11T11:12:49.548Z,7.30
2019-05-11T11:13:49.529Z,7.50
2019-05-11T11:14:49.537Z,8.10
2019-05-11T11:15:49.520Z,6.50
2019-05-11T11:16:49.502Z,5.70
2019-05-11T11:17:49.509Z,6.70
2019-05-11T11:18:49.490Z,7.10
2019-05-11T11:19:49.496Z,9.10
2019-05-11T11:20:49.465Z,5.70
2019-05-11T11:21:49.454Z,6.00
2019-05-11T11:22:49.451Z,6.60
2019-05-11T11:23:49.435Z,6.30
2019-05-11T11:24:49.446Z,7.50
2019-05-11T11:25:49.405Z,6.10
2019-05-11T11:26:49.391Z,6.00
2019-05-11T11:27:49.383Z,6.30
2019-05-11T11:28:49.397Z,6.40
2019-05-11T11:29:49.393Z,6.20
2019-05-11T11:30:49.355Z,6.30
2019-05-11T11:31:49.338Z,6.60
2019-05-11T11:32:49.333Z,7.70
2019-05-11T11:33:49.315Z,7.00
2019-05-11T11:34:49.319Z,6.90
2019-05-11T11:35:49.311Z,6.80
2019-05-11T11:36:49.275Z,7.60
2019-05-11T11:37:49.267Z,8.00
2019-05-11T11:38:49.252Z,7.80
2019-05-11T11:39:49.252Z,7.00
2019-05-11T11:40:49.256Z,7.20
2019-05-11T11:41:49.227Z,8.20
2019-05-11T11:42:49.222Z,8.00
2019-05-11T11:43:49.205Z,8.90
2019-05-11T11:44:49.195Z,7.50
2019-05-11T11:45:49.203Z,7.50
2019-05-11T11:46:54.967Z,6.90
2019-05-11T11:47:49.573Z,7.70
2019-05-11T11:48:49.261Z,7.00
2019-05-11T11:49:49.159Z,7.80
2019-05-11T11:50:49.146Z,7.10
2019-05-11T11:51:49.112Z,7.10
2019-05-11T11:52:49.112Z,7.60
2019-05-11T11:53:49.091Z,6.50
2019-05-11T11:54:49.085Z,7.10
2019-05-11T11:55:49.082Z,7.70
2019-05-11T11:56:49.057Z,6.70
2019-05-11T11:57:50.386Z,6.70
2019-05-11T11:58:49.107Z,7.90
2019-05-11T11:59:49.053Z,6.40
2019-05-11T12:00:49.036Z,6.30
2019-05-11T12:01:49.008Z,6.10
2019-05-11T12:02:49.001Z,7.50
2019-05-11T12:03:49.153Z,6.10
2019-05-11T12:04:48.962Z,7.40
2019-05-11T12:05:48.978Z,6.70
2019-05-11T12:06:49.217Z,5.90
2019-05-11T12:07:49.276Z,6.80
2019-05-11T12:08:49.653Z,7.20
2019-05-11T12:09:48.908Z,5.70
2019-05-11T12:10:48.928Z,7.30
2019-05-11T12:11:48.899Z,7.30
2019-05-11T12:12:48.893Z,7.30
2019-05-11T12:13:48.879Z,6.20
2019-05-11T12:14:48.860Z,6.10
2019-05-11T12:15:48.880Z,6.20
2019-05-11T12:17:03.701Z,7.10
2019-05-11T12:17:48.835Z,7.80
2019-05-11T12:18:48.884Z,5.70
2019-05-11T12:19:48.821Z,7.10
2019-05-11T12:20:48.813Z,5.80
2019-05-11T12:21:48.821Z,7.10
2019-05-11T12:22:48.773Z,5.00
2019-05-11T12:23:48.897Z,7.90
2019-05-11T12:24:48.772Z,6.20
2019-05-11T12:25:48.895Z,6.60
2019-05-11T12:26:48.744Z,6.70
2019-05-11T12:27:49.217Z,6.70
2019-05-11T12:28:49.139Z,5.40
2019-05-11T12:29:48.701Z,7.20
2019-05-11T12:30:48.680Z,5.80
2019-05-11T12:31:48.711Z,7.40
2019-05-11T12:32:48.962Z,7.20
2019-05-11T12:33:48.671Z,6.70
2019-05-11T12:34:48.639Z,6.70
2019-05-11T12:35:48.619Z,5.70
2019-05-11T12:36:48.642Z,7.10
2019-05-11T12:37:48.713Z,7.30
2019-05-11T12:38:49.042Z,10.00
2019-05-11T12:39:48.598Z,7.40
2019-05-11T12:40:48.632Z,7.80
2019-05-11T12:41:48.573Z,5.40
2019-05-11T12:42:49.130Z,8.80
2019-05-11T12:43:49.072Z,7.10
2019-05-11T12:44:48.531Z,7.70
2019-05-11T12:45:48.517Z,8.60
2019-05-11T12:46:49.033Z,6.90
2019-05-11T12:47:48.499Z,7.10
2019-05-11T12:48:48.773Z,7.60
2019-05-11T12:49:48.557Z,6.20
2019-05-11T12:50:48.603Z,6.80
2019-05-11T12:51:48.890Z,7.30
2019-05-11T12:52:48.453Z,6.90
2019-05-11T12:53:48.425Z,6.20
2019-05-11T12:54:48.428Z,7.80
2019-05-11T12:55:48.587Z,7.90
2019-05-11T12:56:49.089Z,7.90
2019-05-11T12:57:48.398Z,7.60
2019-05-11T12:58:49.164Z,7.80
2019-05-11T12:59:48.952Z,6.50
2019-05-11T13:00:48.343Z,8.30
2019-05-11T13:01:48.693Z,7.30
2019-05-11T13:02:48.738Z,6.60
2019-05-11T13:03:49.262Z,6.00